CheckWX is a tool to help pilots better visualize weather data.  It is not intended as a substitute for an official pre-flight weather briefing.

00:36:13 UTC

KIKT METAR
Nakika
Nakika, Mississippi, USA
Current

21 mins ago

KIKT 090015Z AUTO VRB04KT 10SM BKN014 21/17 A3005 RMK A01
Observed
Dec-9 @ 00:15 UTC
Wind
  • Variable at 4 KTS
Visibility
10 SM
Flight Rules
MVFR
Cloud Levels
  • Broken at 1,400' AGL
Temperature
21°C / 70°F
Dewpoint
17°C / 63°F
Humidity
78%
Altimeter
30.05" Hg
Pressure
1017.62 hPa
Previous

41 mins ago

KIKT 082355Z AUTO VRB03KT 10SM BKN013 21/17 A3004 RMK A01
Observed
Dec-8 @ 23:55 UTC
Wind
  • Variable at 3 KTS
Visibility
10 SM
Flight Rules
MVFR
Cloud Levels
  • Broken at 1,300' AGL
Temperature
21°C / 70°F
Dewpoint
17°C / 63°F
Humidity
78%
Altimeter
30.04" Hg
Pressure
1017.32 hPa
Previous

1 hour ago

KIKT 082335Z AUTO 31007G12KT 270V330 9SM BKN012 21/18 A3004 RMK A01
Observed
Dec-8 @ 23:35 UTC
Wind
  • 310° at 7 KTS
  • Gusting to 12 KTS
Visibility
9 SM
Flight Rules
MVFR
Cloud Levels
  • Broken at 1,200' AGL
Temperature
21°C / 70°F
Dewpoint
18°C / 64°F
Humidity
83%
Altimeter
30.04" Hg
Pressure
1017.32 hPa